sensor_id;sensor_type;location;lat;lon;timestamp;P1;durP1;ratioP1;P2;durP2;ratioP2
64075;SDS011;50327;51.328;12.324;2022-11-20T00:00:27;25.42;;;10.68;;
64075;SDS011;50327;51.328;12.324;2022-11-20T00:02:53;32.85;;;13.38;;
64075;SDS011;50327;51.328;12.324;2022-11-20T00:05:18;31.48;;;12.52;;
64075;SDS011;50327;51.328;12.324;2022-11-20T00:07:44;29.60;;;12.38;;
64075;SDS011;50327;51.328;12.324;2022-11-20T00:10:09;28.33;;;12.68;;
64075;SDS011;50327;51.328;12.324;2022-11-20T00:12:34;29.33;;;12.68;;
64075;SDS011;50327;51.328;12.324;2022-11-20T00:15:00;20.42;;;9.82;;
64075;SDS011;50327;51.328;12.324;2022-11-20T00:17:25;26.45;;;13.02;;
64075;SDS011;50327;51.328;12.324;2022-11-20T00:19:50;33.88;;;12.50;;
64075;SDS011;50327;51.328;12.324;2022-11-20T00:22:16;25.55;;;12.43;;
64075;SDS011;50327;51.328;12.324;2022-11-20T00:24:41;24.35;;;11.48;;
64075;SDS011;50327;51.328;12.324;2022-11-20T00:27:06;30.40;;;12.30;;
64075;SDS011;50327;51.328;12.324;2022-11-20T00:29:32;23.42;;;11.80;;
64075;SDS011;50327;51.328;12.324;2022-11-20T00:31:57;34.22;;;12.32;;
64075;SDS011;50327;51.328;12.324;2022-11-20T00:34:22;27.55;;;12.25;;
64075;SDS011;50327;51.328;12.324;2022-11-20T00:36:47;25.25;;;11.93;;
64075;SDS011;50327;51.328;12.324;2022-11-20T00:39:12;26.35;;;10.98;;
64075;SDS011;50327;51.328;12.324;2022-11-20T00:41:38;24.70;;;11.98;;
64075;SDS011;50327;51.328;12.324;2022-11-20T00:44:03;35.85;;;13.25;;
64075;SDS011;50327;51.328;12.324;2022-11-20T00:46:28;27.45;;;11.45;;
64075;SDS011;50327;51.328;12.324;2022-11-20T00:48:54;25.08;;;11.02;;
64075;SDS011;50327;51.328;12.324;2022-11-20T00:51:20;25.55;;;12.18;;
64075;SDS011;50327;51.328;12.324;2022-11-20T00:53:46;28.75;;;12.70;;
64075;SDS011;50327;51.328;12.324;2022-11-20T00:56:12;24.83;;;12.32;;
64075;SDS011;50327;51.328;12.324;2022-11-20T00:58:38;30.40;;;10.93;;
64075;SDS011;50327;51.328;12.324;2022-11-20T01:03:36;30.58;;;12.77;;
64075;SDS011;50327;51.328;12.324;2022-11-20T01:06:02;25.63;;;11.40;;
64075;SDS011;50327;51.328;12.324;2022-11-20T01:08:31;26.77;;;13.13;;
64075;SDS011;50327;51.328;12.324;2022-11-20T01:13:22;23.33;;;11.05;;
64075;SDS011;50327;51.328;12.324;2022-11-20T01:16:10;23.90;;;11.68;;
64075;SDS011;50327;51.328;12.324;2022-11-20T01:18:36;27.63;;;10.57;;
64075;SDS011;50327;51.328;12.324;2022-11-20T01:21:02;24.88;;;11.73;;
64075;SDS011;50327;51.328;12.324;2022-11-20T01:23:30;28.88;;;11.73;;
64075;SDS011;50327;51.328;12.324;2022-11-20T01:25:58;34.42;;;12.80;;
64075;SDS011;50327;51.328;12.324;2022-11-20T01:28:24;35.35;;;12.73;;
64075;SDS011;50327;51.328;12.324;2022-11-20T01:30:49;22.27;;;11.30;;
64075;SDS011;50327;51.328;12.324;2022-11-20T01:33:14;32.05;;;13.23;;
64075;SDS011;50327;51.328;12.324;2022-11-20T01:35:39;25.00;;;11.40;;
64075;SDS011;50327;51.328;12.324;2022-11-20T01:38:05;27.73;;;11.20;;
64075;SDS011;50327;51.328;12.324;2022-11-20T01:40:30;33.05;;;13.52;;
64075;SDS011;50327;51.328;12.324;2022-11-20T01:43:00;27.33;;;11.82;;
64075;SDS011;50327;51.328;12.324;2022-11-20T01:48:15;28.95;;;11.50;;
64075;SDS011;50327;51.328;12.324;2022-11-20T01:50:40;28.20;;;12.70;;
64075;SDS011;50327;51.328;12.324;2022-11-20T01:53:08;29.45;;;11.63;;
64075;SDS011;50327;51.328;12.324;2022-11-20T01:55:35;30.92;;;11.65;;
64075;SDS011;50327;51.328;12.324;2022-11-20T01:58:01;20.30;;;10.00;;
64075;SDS011;50327;51.328;12.324;2022-11-20T02:00:27;28.88;;;12.23;;
64075;SDS011;50327;51.328;12.324;2022-11-20T02:03:00;27.38;;;12.63;;
64075;SDS011;50327;51.328;12.324;2022-11-20T02:05:39;31.15;;;11.68;;
64075;SDS011;50327;51.328;12.324;2022-11-20T02:08:06;31.52;;;12.60;;
64075;SDS011;50327;51.328;12.324;2022-11-20T02:10:32;38.80;;;13.85;;
64075;SDS011;50327;51.328;12.324;2022-11-20T02:12:58;36.70;;;12.82;;
64075;SDS011;50327;51.328;12.324;2022-11-20T02:15:42;36.38;;;14.07;;
64075;SDS011;50327;51.328;12.324;2022-11-20T02:18:07;46.92;;;13.73;;
64075;SDS011;50327;51.328;12.324;2022-11-20T02:20:34;37.63;;;15.32;;
64075;SDS011;50327;51.328;12.324;2022-11-20T02:23:02;44.42;;;13.55;;
64075;SDS011;50327;51.328;12.324;2022-11-20T02:25:28;32.83;;;14.18;;
64075;SDS011;50327;51.328;12.324;2022-11-20T02:27:55;29.10;;;12.65;;
64075;SDS011;50327;51.328;12.324;2022-11-20T02:30:20;32.95;;;14.00;;
64075;SDS011;50327;51.328;12.324;2022-11-20T02:32:46;28.00;;;11.77;;
64075;SDS011;50327;51.328;12.324;2022-11-20T02:37:42;27.40;;;11.52;;
64075;SDS011;50327;51.328;12.324;2022-11-20T02:40:08;35.10;;;13.02;;
64075;SDS011;50327;51.328;12.324;2022-11-20T02:42:34;34.60;;;14.25;;
64075;SDS011;50327;51.328;12.324;2022-11-20T02:44:59;25.67;;;12.23;;
64075;SDS011;50327;51.328;12.324;2022-11-20T02:47:25;30.02;;;11.60;;
64075;SDS011;50327;51.328;12.324;2022-11-20T02:49:50;38.13;;;11.93;;
64075;SDS011;50327;51.328;12.324;2022-11-20T02:52:15;33.35;;;11.73;;
64075;SDS011;50327;51.328;12.324;2022-11-20T02:54:40;32.30;;;14.05;;
64075;SDS011;50327;51.328;12.324;2022-11-20T02:57:05;32.33;;;12.20;;
64075;SDS011;50327;51.328;12.324;2022-11-20T02:59:31;41.97;;;11.77;;
64075;SDS011;50327;51.328;12.324;2022-11-20T03:01:56;31.23;;;13.95;;
64075;SDS011;50327;51.328;12.324;2022-11-20T03:04:24;26.40;;;13.05;;
64075;SDS011;50327;51.328;12.324;2022-11-20T03:06:49;28.83;;;11.77;;
64075;SDS011;50327;51.328;12.324;2022-11-20T03:09:15;26.17;;;11.77;;
64075;SDS011;50327;51.328;12.324;2022-11-20T03:11:40;35.60;;;12.25;;
64075;SDS011;50327;51.328;12.324;2022-11-20T03:14:05;28.98;;;14.02;;
64075;SDS011;50327;51.328;12.324;2022-11-20T03:16:30;27.42;;;12.82;;
64075;SDS011;50327;51.328;12.324;2022-11-20T03:18:56;27.92;;;12.77;;
64075;SDS011;50327;51.328;12.324;2022-11-20T03:21:22;33.60;;;15.10;;
64075;SDS011;50327;51.328;12.324;2022-11-20T03:23:47;34.00;;;13.05;;
64075;SDS011;50327;51.328;12.324;2022-11-20T03:26:16;33.20;;;12.90;;
64075;SDS011;50327;51.328;12.324;2022-11-20T03:28:45;37.00;;;15.15;;
64075;SDS011;50327;51.328;12.324;2022-11-20T03:31:11;37.75;;;14.73;;
64075;SDS011;50327;51.328;12.324;2022-11-20T03:33:38;31.20;;;13.27;;
64075;SDS011;50327;51.328;12.324;2022-11-20T03:36:04;31.13;;;13.70;;
64075;SDS011;50327;51.328;12.324;2022-11-20T03:38:30;34.50;;;14.38;;
64075;SDS011;50327;51.328;12.324;2022-11-20T03:41:02;25.83;;;12.65;;
64075;SDS011;50327;51.328;12.324;2022-11-20T03:43:28;43.20;;;14.38;;
64075;SDS011;50327;51.328;12.324;2022-11-20T03:45:53;31.80;;;13.77;;
64075;SDS011;50327;51.328;12.324;2022-11-20T03:48:18;37.55;;;13.68;;
64075;SDS011;50327;51.328;12.324;2022-11-20T03:50:43;35.92;;;14.05;;
64075;SDS011;50327;51.328;12.324;2022-11-20T03:53:09;26.85;;;12.73;;
64075;SDS011;50327;51.328;12.324;2022-11-20T03:55:34;33.25;;;14.98;;
64075;SDS011;50327;51.328;12.324;2022-11-20T03:57:59;30.40;;;14.45;;
64075;SDS011;50327;51.328;12.324;2022-11-20T04:00:24;40.35;;;15.30;;
64075;SDS011;50327;51.328;12.324;2022-11-20T04:02:50;41.92;;;16.05;;
64075;SDS011;50327;51.328;12.324;2022-11-20T04:05:15;34.22;;;15.35;;
64075;SDS011;50327;51.328;12.324;2022-11-20T04:07:40;35.03;;;15.70;;
64075;SDS011;50327;51.328;12.324;2022-11-20T04:10:06;34.63;;;15.05;;
64075;SDS011;50327;51.328;12.324;2022-11-20T04:12:31;34.38;;;14.00;;
64075;SDS011;50327;51.328;12.324;2022-11-20T04:14:57;49.83;;;14.60;;
64075;SDS011;50327;51.328;12.324;2022-11-20T04:17:22;36.15;;;14.75;;
64075;SDS011;50327;51.328;12.324;2022-11-20T04:19:47;38.13;;;14.15;;
64075;SDS011;50327;51.328;12.324;2022-11-20T04:22:12;34.45;;;14.75;;
64075;SDS011;50327;51.328;12.324;2022-11-20T04:24:38;41.22;;;16.65;;
64075;SDS011;50327;51.328;12.324;2022-11-20T04:27:03;36.42;;;15.15;;
64075;SDS011;50327;51.328;12.324;2022-11-20T04:29:28;36.55;;;15.80;;
64075;SDS011;50327;51.328;12.324;2022-11-20T04:31:54;32.80;;;13.68;;
64075;SDS011;50327;51.328;12.324;2022-11-20T04:34:19;44.53;;;15.73;;
64075;SDS011;50327;51.328;12.324;2022-11-20T04:36:47;36.88;;;15.23;;
64075;SDS011;50327;51.328;12.324;2022-11-20T04:39:13;31.95;;;13.70;;
64075;SDS011;50327;51.328;12.324;2022-11-20T04:41:39;38.08;;;16.17;;
64075;SDS011;50327;51.328;12.324;2022-11-20T04:44:04;43.28;;;14.77;;
64075;SDS011;50327;51.328;12.324;2022-11-20T04:46:34;38.47;;;13.88;;
64075;SDS011;50327;51.328;12.324;2022-11-20T04:48:59;47.88;;;16.40;;
64075;SDS011;50327;51.328;12.324;2022-11-20T04:51:28;38.08;;;14.82;;
64075;SDS011;50327;51.328;12.324;2022-11-20T04:53:53;41.72;;;16.33;;
64075;SDS011;50327;51.328;12.324;2022-11-20T04:56:18;36.88;;;15.63;;
64075;SDS011;50327;51.328;12.324;2022-11-20T04:58:44;40.47;;;16.75;;
64075;SDS011;50327;51.328;12.324;2022-11-20T05:01:13;38.30;;;15.57;;
64075;SDS011;50327;51.328;12.324;2022-11-20T05:03:39;38.25;;;15.50;;
64075;SDS011;50327;51.328;12.324;2022-11-20T05:06:05;32.03;;;14.77;;
64075;SDS011;50327;51.328;12.324;2022-11-20T05:08:33;40.83;;;15.18;;
64075;SDS011;50327;51.328;12.324;2022-11-20T05:11:02;41.45;;;15.05;;
64075;SDS011;50327;51.328;12.324;2022-11-20T05:13:27;28.63;;;13.40;;
64075;SDS011;50327;51.328;12.324;2022-11-20T05:15:52;34.97;;;15.40;;
64075;SDS011;50327;51.328;12.324;2022-11-20T05:18:17;32.83;;;14.45;;
64075;SDS011;50327;51.328;12.324;2022-11-20T05:20:43;40.78;;;16.23;;
64075;SDS011;50327;51.328;12.324;2022-11-20T05:23:08;34.30;;;15.73;;
64075;SDS011;50327;51.328;12.324;2022-11-20T05:25:35;44.88;;;16.67;;
64075;SDS011;50327;51.328;12.324;2022-11-20T05:28:01;36.20;;;14.93;;
64075;SDS011;50327;51.328;12.324;2022-11-20T05:30:26;36.25;;;16.38;;
64075;SDS011;50327;51.328;12.324;2022-11-20T05:32:51;33.15;;;15.48;;
64075;SDS011;50327;51.328;12.324;2022-11-20T05:35:16;37.88;;;15.25;;
64075;SDS011;50327;51.328;12.324;2022-11-20T05:37:42;35.08;;;16.00;;
64075;SDS011;50327;51.328;12.324;2022-11-20T05:40:07;35.22;;;15.43;;
64075;SDS011;50327;51.328;12.324;2022-11-20T05:42:32;34.55;;;12.95;;
64075;SDS011;50327;51.328;12.324;2022-11-20T05:45:02;37.38;;;15.82;;
64075;SDS011;50327;51.328;12.324;2022-11-20T05:47:30;48.97;;;15.38;;
64075;SDS011;50327;51.328;12.324;2022-11-20T05:49:56;37.42;;;15.32;;
64075;SDS011;50327;51.328;12.324;2022-11-20T05:52:21;33.40;;;14.02;;
64075;SDS011;50327;51.328;12.324;2022-11-20T05:54:46;33.33;;;14.85;;
64075;SDS011;50327;51.328;12.324;2022-11-20T05:57:12;49.28;;;16.23;;
64075;SDS011;50327;51.328;12.324;2022-11-20T05:59:37;32.72;;;13.75;;
64075;SDS011;50327;51.328;12.324;2022-11-20T06:02:02;43.33;;;15.63;;
64075;SDS011;50327;51.328;12.324;2022-11-20T06:04:27;34.75;;;14.02;;
64075;SDS011;50327;51.328;12.324;2022-11-20T06:06:53;33.13;;;15.00;;
64075;SDS011;50327;51.328;12.324;2022-11-20T06:09:18;61.08;;;17.63;;
64075;SDS011;50327;51.328;12.324;2022-11-20T06:11:43;30.42;;;14.90;;
64075;SDS011;50327;51.328;12.324;2022-11-20T06:14:09;42.72;;;15.05;;
64075;SDS011;50327;51.328;12.324;2022-11-20T06:16:34;35.40;;;14.68;;
64075;SDS011;50327;51.328;12.324;2022-11-20T06:18:59;33.13;;;13.48;;
64075;SDS011;50327;51.328;12.324;2022-11-20T06:21:24;36.03;;;15.18;;
64075;SDS011;50327;51.328;12.324;2022-11-20T06:23:50;31.73;;;13.68;;
64075;SDS011;50327;51.328;12.324;2022-11-20T06:26:19;30.55;;;12.77;;
64075;SDS011;50327;51.328;12.324;2022-11-20T06:28:44;42.75;;;15.65;;
64075;SDS011;50327;51.328;12.324;2022-11-20T06:31:10;36.65;;;13.27;;
64075;SDS011;50327;51.328;12.324;2022-11-20T06:33:36;28.50;;;12.70;;
64075;SDS011;50327;51.328;12.324;2022-11-20T06:36:02;33.92;;;14.45;;
64075;SDS011;50327;51.328;12.324;2022-11-20T06:38:28;38.75;;;16.08;;
64075;SDS011;50327;51.328;12.324;2022-11-20T06:40:53;33.25;;;15.65;;
64075;SDS011;50327;51.328;12.324;2022-11-20T06:43:19;36.20;;;14.82;;
64075;SDS011;50327;51.328;12.324;2022-11-20T06:45:51;29.95;;;14.65;;
64075;SDS011;50327;51.328;12.324;2022-11-20T06:48:16;40.70;;;15.45;;
64075;SDS011;50327;51.328;12.324;2022-11-20T06:50:41;34.45;;;16.05;;
64075;SDS011;50327;51.328;12.324;2022-11-20T06:53:07;32.95;;;15.05;;
64075;SDS011;50327;51.328;12.324;2022-11-20T06:55:32;33.00;;;14.65;;
64075;SDS011;50327;51.328;12.324;2022-11-20T06:57:57;40.58;;;17.20;;
64075;SDS011;50327;51.328;12.324;2022-11-20T07:00:22;34.38;;;15.30;;
64075;SDS011;50327;51.328;12.324;2022-11-20T07:02:48;35.10;;;14.23;;
64075;SDS011;50327;51.328;12.324;2022-11-20T07:05:16;32.42;;;15.82;;
64075;SDS011;50327;51.328;12.324;2022-11-20T07:07:42;30.50;;;13.13;;
64075;SDS011;50327;51.328;12.324;2022-11-20T07:10:07;30.67;;;16.08;;
64075;SDS011;50327;51.328;12.324;2022-11-20T07:12:32;35.55;;;15.43;;
64075;SDS011;50327;51.328;12.324;2022-11-20T07:14:58;40.58;;;16.38;;
64075;SDS011;50327;51.328;12.324;2022-11-20T07:17:23;36.45;;;14.45;;
64075;SDS011;50327;51.328;12.324;2022-11-20T07:19:48;24.85;;;11.63;;
64075;SDS011;50327;51.328;12.324;2022-11-20T07:22:14;30.92;;;15.25;;
64075;SDS011;50327;51.328;12.324;2022-11-20T07:24:39;40.10;;;15.18;;
64075;SDS011;50327;51.328;12.324;2022-11-20T07:27:04;44.15;;;18.88;;
64075;SDS011;50327;51.328;12.324;2022-11-20T07:29:30;30.48;;;13.15;;
64075;SDS011;50327;51.328;12.324;2022-11-20T07:31:55;46.13;;;17.83;;
64075;SDS011;50327;51.328;12.324;2022-11-20T07:34:23;47.50;;;17.13;;
64075;SDS011;50327;51.328;12.324;2022-11-20T07:36:48;40.55;;;15.02;;
64075;SDS011;50327;51.328;12.324;2022-11-20T07:39:14;38.67;;;16.30;;
64075;SDS011;50327;51.328;12.324;2022-11-20T07:41:39;34.85;;;15.38;;
64075;SDS011;50327;51.328;12.324;2022-11-20T07:44:04;36.17;;;14.07;;
64075;SDS011;50327;51.328;12.324;2022-11-20T07:46:29;43.63;;;16.83;;
64075;SDS011;50327;51.328;12.324;2022-11-20T07:48:55;31.80;;;13.73;;
64075;SDS011;50327;51.328;12.324;2022-11-20T07:51:20;43.55;;;15.77;;
64075;SDS011;50327;51.328;12.324;2022-11-20T07:53:45;38.20;;;15.85;;
64075;SDS011;50327;51.328;12.324;2022-11-20T07:56:10;37.60;;;14.93;;
64075;SDS011;50327;51.328;12.324;2022-11-20T07:58:36;37.03;;;14.65;;
64075;SDS011;50327;51.328;12.324;2022-11-20T08:01:05;38.47;;;15.65;;
64075;SDS011;50327;51.328;12.324;2022-11-20T08:03:31;33.67;;;14.43;;
64075;SDS011;50327;51.328;12.324;2022-11-20T08:05:58;37.88;;;14.55;;
64075;SDS011;50327;51.328;12.324;2022-11-20T08:08:23;31.05;;;12.88;;
64075;SDS011;50327;51.328;12.324;2022-11-20T08:10:48;40.28;;;16.35;;
64075;SDS011;50327;51.328;12.324;2022-11-20T08:13:14;38.53;;;13.23;;
64075;SDS011;50327;51.328;12.324;2022-11-20T08:15:57;34.75;;;14.45;;
64075;SDS011;50327;51.328;12.324;2022-11-20T08:18:22;33.38;;;13.45;;
64075;SDS011;50327;51.328;12.324;2022-11-20T08:20:48;32.10;;;14.80;;
64075;SDS011;50327;51.328;12.324;2022-11-20T08:23:13;28.60;;;13.50;;
64075;SDS011;50327;51.328;12.324;2022-11-20T08:25:41;35.80;;;14.73;;
64075;SDS011;50327;51.328;12.324;2022-11-20T08:28:07;37.38;;;15.23;;
64075;SDS011;50327;51.328;12.324;2022-11-20T08:30:33;32.95;;;15.00;;
64075;SDS011;50327;51.328;12.324;2022-11-20T08:33:06;30.20;;;13.73;;
64075;SDS011;50327;51.328;12.324;2022-11-20T08:35:38;31.95;;;14.13;;
64075;SDS011;50327;51.328;12.324;2022-11-20T08:38:06;36.15;;;13.90;;
64075;SDS011;50327;51.328;12.324;2022-11-20T08:40:31;34.00;;;14.13;;
64075;SDS011;50327;51.328;12.324;2022-11-20T08:42:57;40.42;;;15.32;;
64075;SDS011;50327;51.328;12.324;2022-11-20T08:45:22;36.05;;;13.07;;
64075;SDS011;50327;51.328;12.324;2022-11-20T08:47:48;28.17;;;12.35;;
64075;SDS011;50327;51.328;12.324;2022-11-20T08:50:14;31.60;;;13.55;;
64075;SDS011;50327;51.328;12.324;2022-11-20T08:52:39;35.70;;;12.95;;
64075;SDS011;50327;51.328;12.324;2022-11-20T08:55:05;30.23;;;13.15;;
64075;SDS011;50327;51.328;12.324;2022-11-20T08:57:31;35.33;;;14.20;;
64075;SDS011;50327;51.328;12.324;2022-11-20T08:59:56;28.67;;;12.77;;
64075;SDS011;50327;51.328;12.324;2022-11-20T09:02:22;39.42;;;14.20;;
64075;SDS011;50327;51.328;12.324;2022-11-20T09:04:47;32.97;;;13.88;;
64075;SDS011;50327;51.328;12.324;2022-11-20T09:07:12;34.30;;;13.40;;
64075;SDS011;50327;51.328;12.324;2022-11-20T09:09:37;35.70;;;12.35;;
64075;SDS011;50327;51.328;12.324;2022-11-20T09:12:03;37.15;;;12.65;;
64075;SDS011;50327;51.328;12.324;2022-11-20T09:14:28;29.60;;;12.40;;
64075;SDS011;50327;51.328;12.324;2022-11-20T09:16:55;40.72;;;12.68;;
64075;SDS011;50327;51.328;12.324;2022-11-20T09:19:21;28.90;;;12.48;;
64075;SDS011;50327;51.328;12.324;2022-11-20T09:21:46;38.58;;;14.20;;
64075;SDS011;50327;51.328;12.324;2022-11-20T09:24:11;39.83;;;14.88;;
64075;SDS011;50327;51.328;12.324;2022-11-20T09:26:36;34.83;;;13.90;;
64075;SDS011;50327;51.328;12.324;2022-11-20T09:29:01;27.55;;;12.23;;
64075;SDS011;50327;51.328;12.324;2022-11-20T09:31:27;29.67;;;13.50;;
64075;SDS011;50327;51.328;12.324;2022-11-20T09:33:52;24.50;;;11.88;;
64075;SDS011;50327;51.328;12.324;2022-11-20T09:36:17;28.42;;;13.30;;
64075;SDS011;50327;51.328;12.324;2022-11-20T09:38:44;29.48;;;12.88;;
64075;SDS011;50327;51.328;12.324;2022-11-20T09:41:10;30.42;;;13.30;;
64075;SDS011;50327;51.328;12.324;2022-11-20T09:43:44;36.38;;;14.02;;
64075;SDS011;50327;51.328;12.324;2022-11-20T09:56:24;24.70;;;11.90;;
64075;SDS011;50327;51.328;12.324;2022-11-20T09:58:51;32.90;;;13.48;;
64075;SDS011;50327;51.328;12.324;2022-11-20T10:01:17;33.63;;;14.10;;
64075;SDS011;50327;51.328;12.324;2022-11-20T10:06:13;34.47;;;12.87;;
64075;SDS011;50327;51.328;12.324;2022-11-20T10:08:41;27.98;;;12.38;;
64075;SDS011;50327;51.328;12.324;2022-11-20T10:21:17;29.38;;;13.35;;
64075;SDS011;50327;51.328;12.324;2022-11-20T10:23:51;29.70;;;13.20;;
64075;SDS011;50327;51.328;12.324;2022-11-20T10:26:22;37.15;;;12.70;;
64075;SDS011;50327;51.328;12.324;2022-11-20T10:28:52;29.13;;;12.07;;
64075;SDS011;50327;51.328;12.324;2022-11-20T10:31:27;24.63;;;11.13;;
64075;SDS011;50327;51.328;12.324;2022-11-20T10:33:54;31.90;;;12.68;;
64075;SDS011;50327;51.328;12.324;2022-11-20T10:36:36;29.63;;;11.00;;
64075;SDS011;50327;51.328;12.324;2022-11-20T10:39:06;23.10;;;10.70;;
64075;SDS011;50327;51.328;12.324;2022-11-20T10:41:40;28.08;;;11.52;;
64075;SDS011;50327;51.328;12.324;2022-11-20T10:44:12;35.05;;;12.40;;
64075;SDS011;50327;51.328;12.324;2022-11-20T10:46:48;25.70;;;11.85;;
64075;SDS011;50327;51.328;12.324;2022-11-20T10:49:17;27.35;;;10.18;;
64075;SDS011;50327;51.328;12.324;2022-11-20T10:56:53;22.55;;;10.25;;
64075;SDS011;50327;51.328;12.324;2022-11-20T11:01:49;21.58;;;9.30;;
64075;SDS011;50327;51.328;12.324;2022-11-20T11:04:30;23.33;;;9.68;;
64075;SDS011;50327;51.328;12.324;2022-11-20T11:07:58;19.98;;;9.45;;
64075;SDS011;50327;51.328;12.324;2022-11-20T11:09:53;21.25;;;8.77;;
64075;SDS011;50327;51.328;12.324;2022-11-20T11:12:19;21.70;;;8.77;;
64075;SDS011;50327;51.328;12.324;2022-11-20T11:14:49;23.63;;;7.85;;
64075;SDS011;50327;51.328;12.324;2022-11-20T11:17:48;19.48;;;7.97;;
64075;SDS011;50327;51.328;12.324;2022-11-20T11:20:14;21.17;;;8.88;;
64075;SDS011;50327;51.328;12.324;2022-11-20T11:22:59;25.30;;;8.85;;
64075;SDS011;50327;51.328;12.324;2022-11-20T11:27:59;21.63;;;9.75;;
64075;SDS011;50327;51.328;12.324;2022-11-20T11:30:25;21.83;;;8.38;;
64075;SDS011;50327;51.328;12.324;2022-11-20T11:32:50;22.60;;;9.88;;
64075;SDS011;50327;51.328;12.324;2022-11-20T11:35:27;19.58;;;8.45;;
64075;SDS011;50327;51.328;12.324;2022-11-20T11:38:03;22.42;;;9.57;;
64075;SDS011;50327;51.328;12.324;2022-11-20T11:40:29;23.60;;;8.88;;
64075;SDS011;50327;51.328;12.324;2022-11-20T11:42:56;18.63;;;8.43;;
64075;SDS011;50327;51.328;12.324;2022-11-20T11:45:22;18.27;;;8.15;;
64075;SDS011;50327;51.328;12.324;2022-11-20T11:47:48;16.00;;;6.85;;
64075;SDS011;50327;51.328;12.324;2022-11-20T11:50:26;22.02;;;8.10;;
64075;SDS011;50327;51.328;12.324;2022-11-20T11:53:08;16.80;;;7.53;;
64075;SDS011;50327;51.328;12.324;2022-11-20T12:03:29;22.25;;;9.30;;
64075;SDS011;50327;51.328;12.324;2022-11-20T12:05:59;18.38;;;7.28;;
64075;SDS011;50327;51.328;12.324;2022-11-20T12:08:35;16.63;;;7.53;;
64075;SDS011;50327;51.328;12.324;2022-11-20T12:13:47;18.15;;;7.30;;
64075;SDS011;50327;51.328;12.324;2022-11-20T12:16:14;22.17;;;8.75;;
64075;SDS011;50327;51.328;12.324;2022-11-20T12:18:40;14.20;;;7.32;;
64075;SDS011;50327;51.328;12.324;2022-11-20T12:25:57;17.00;;;7.40;;
64075;SDS011;50327;51.328;12.324;2022-11-20T12:28:28;19.70;;;8.32;;
64075;SDS011;50327;51.328;12.324;2022-11-20T12:36:16;20.63;;;7.93;;
64075;SDS011;50327;51.328;12.324;2022-11-20T12:50:00;18.17;;;8.48;;
64075;SDS011;50327;51.328;12.324;2022-11-20T12:57:58;17.02;;;7.70;;
64075;SDS011;50327;51.328;12.324;2022-11-20T13:00:24;16.58;;;7.20;;
64075;SDS011;50327;51.328;12.324;2022-11-20T13:05:37;22.60;;;9.02;;
64075;SDS011;50327;51.328;12.324;2022-11-20T13:08:04;18.00;;;7.43;;
64075;SDS011;50327;51.328;12.324;2022-11-20T13:10:42;22.80;;;8.60;;
64075;SDS011;50327;51.328;12.324;2022-11-20T13:13:33;18.60;;;7.35;;
64075;SDS011;50327;51.328;12.324;2022-11-20T13:16:02;17.23;;;7.55;;
64075;SDS011;50327;51.328;12.324;2022-11-20T13:18:30;25.80;;;9.38;;
64075;SDS011;50327;51.328;12.324;2022-11-20T13:20:59;26.38;;;8.15;;
64075;SDS011;50327;51.328;12.324;2022-11-20T13:23:25;20.70;;;8.93;;
64075;SDS011;50327;51.328;12.324;2022-11-20T13:25:50;18.58;;;7.97;;
64075;SDS011;50327;51.328;12.324;2022-11-20T13:30:49;19.95;;;9.57;;
64075;SDS011;50327;51.328;12.324;2022-11-20T13:33:31;17.38;;;7.38;;
64075;SDS011;50327;51.328;12.324;2022-11-20T13:38:25;22.03;;;8.00;;
64075;SDS011;50327;51.328;12.324;2022-11-20T13:46:02;23.45;;;7.45;;
64075;SDS011;50327;51.328;12.324;2022-11-20T13:48:39;18.98;;;7.22;;
64075;SDS011;50327;51.328;12.324;2022-11-20T13:56:19;22.30;;;7.22;;
64075;SDS011;50327;51.328;12.324;2022-11-20T14:01:32;14.05;;;6.55;;
64075;SDS011;50327;51.328;12.324;2022-11-20T14:03:59;15.25;;;6.72;;
64075;SDS011;50327;51.328;12.324;2022-11-20T14:08:49;18.88;;;7.78;;
64075;SDS011;50327;51.328;12.324;2022-11-20T14:13:51;16.70;;;8.20;;
64075;SDS011;50327;51.328;12.324;2022-11-20T14:16:19;17.70;;;8.15;;
64075;SDS011;50327;51.328;12.324;2022-11-20T14:18:44;25.33;;;8.23;;
64075;SDS011;50327;51.328;12.324;2022-11-20T14:21:10;18.65;;;7.78;;
64075;SDS011;50327;51.328;12.324;2022-11-20T14:23:35;20.65;;;8.27;;
64075;SDS011;50327;51.328;12.324;2022-11-20T14:26:00;22.52;;;8.27;;
64075;SDS011;50327;51.328;12.324;2022-11-20T14:28:29;20.75;;;8.38;;
64075;SDS011;50327;51.328;12.324;2022-11-20T14:30:55;20.50;;;8.02;;
64075;SDS011;50327;51.328;12.324;2022-11-20T14:33:21;17.13;;;8.68;;
64075;SDS011;50327;51.328;12.324;2022-11-20T14:35:53;20.60;;;8.77;;
64075;SDS011;50327;51.328;12.324;2022-11-20T14:38:24;20.77;;;9.10;;
64075;SDS011;50327;51.328;12.324;2022-11-20T14:40:49;25.65;;;8.60;;
64075;SDS011;50327;51.328;12.324;2022-11-20T14:43:22;14.68;;;7.38;;
64075;SDS011;50327;51.328;12.324;2022-11-20T14:45:58;24.92;;;10.25;;
64075;SDS011;50327;51.328;12.324;2022-11-20T14:48:25;23.10;;;9.43;;
64075;SDS011;50327;51.328;12.324;2022-11-20T14:50:52;23.58;;;10.40;;
64075;SDS011;50327;51.328;12.324;2022-11-20T14:53:22;31.77;;;10.30;;
64075;SDS011;50327;51.328;12.324;2022-11-20T14:55:53;23.40;;;9.35;;
64075;SDS011;50327;51.328;12.324;2022-11-20T14:58:23;22.35;;;9.88;;
64075;SDS011;50327;51.328;12.324;2022-11-20T15:00:59;21.67;;;9.40;;
64075;SDS011;50327;51.328;12.324;2022-11-20T15:03:31;22.92;;;9.88;;
64075;SDS011;50327;51.328;12.324;2022-11-20T15:05:56;23.10;;;9.13;;
64075;SDS011;50327;51.328;12.324;2022-11-20T15:08:21;25.25;;;11.05;;
64075;SDS011;50327;51.328;12.324;2022-11-20T15:10:48;22.95;;;8.68;;
64075;SDS011;50327;51.328;12.324;2022-11-20T15:13:15;20.75;;;8.35;;
64075;SDS011;50327;51.328;12.324;2022-11-20T15:18:19;19.17;;;8.85;;
64075;SDS011;50327;51.328;12.324;2022-11-20T15:20:44;23.50;;;9.05;;
64075;SDS011;50327;51.328;12.324;2022-11-20T15:23:11;22.02;;;8.80;;
64075;SDS011;50327;51.328;12.324;2022-11-20T15:25:37;19.63;;;8.98;;
64075;SDS011;50327;51.328;12.324;2022-11-20T15:28:02;21.70;;;9.25;;
64075;SDS011;50327;51.328;12.324;2022-11-20T15:30:27;18.20;;;8.15;;
64075;SDS011;50327;51.328;12.324;2022-11-20T15:32:53;19.98;;;8.93;;
64075;SDS011;50327;51.328;12.324;2022-11-20T15:35:18;24.55;;;9.25;;
64075;SDS011;50327;51.328;12.324;2022-11-20T15:37:43;20.98;;;9.02;;
64075;SDS011;50327;51.328;12.324;2022-11-20T15:40:09;21.23;;;8.85;;
64075;SDS011;50327;51.328;12.324;2022-11-20T15:42:34;19.48;;;8.88;;
64075;SDS011;50327;51.328;12.324;2022-11-20T15:45:00;20.48;;;9.57;;
64075;SDS011;50327;51.328;12.324;2022-11-20T15:47:27;20.92;;;9.27;;
64075;SDS011;50327;51.328;12.324;2022-11-20T15:49:53;23.65;;;9.95;;
64075;SDS011;50327;51.328;12.324;2022-11-20T15:52:18;26.15;;;9.82;;
64075;SDS011;50327;51.328;12.324;2022-11-20T15:54:43;22.17;;;9.70;;
64075;SDS011;50327;51.328;12.324;2022-11-20T15:57:08;23.05;;;9.38;;
64075;SDS011;50327;51.328;12.324;2022-11-20T15:59:34;22.42;;;8.82;;